createdAt,value
2023-02-18T00:01:32.426Z,6.05
2023-02-18T00:06:35.955Z,3.78
2023-02-18T00:11:38.298Z,3.35
2023-02-18T00:16:39.786Z,3.75
2023-02-18T00:21:41.797Z,6.00
2023-02-18T00:26:43.953Z,5.50
2023-02-18T00:31:45.702Z,2.42
2023-02-18T00:41:48.768Z,4.28
2023-02-18T00:46:50.321Z,4.43
2023-02-18T00:51:51.839Z,5.40
2023-02-18T00:56:53.308Z,5.32
2023-02-18T01:01:54.839Z,6.40
2023-02-18T01:06:56.458Z,8.45
2023-02-18T01:11:58.065Z,5.60
2023-02-18T01:16:59.522Z,3.13
2023-02-18T01:22:01.086Z,6.63
2023-02-18T01:27:02.548Z,3.92
2023-02-18T01:32:04.126Z,5.03
2023-02-18T01:37:05.635Z,3.83
2023-02-18T01:42:07.743Z,4.20
2023-02-18T01:47:09.221Z,4.22
2023-02-18T01:52:14.609Z,7.93
2023-02-18T01:57:21.650Z,5.60
2023-02-18T02:02:26.980Z,5.38
2023-02-18T02:07:29.705Z,3.75
2023-02-18T02:12:53.265Z,4.65
2023-02-18T02:18:06.845Z,4.60
2023-02-18T02:23:36.251Z,5.38
2023-02-18T02:29:00.428Z,7.30
2023-02-18T02:34:32.864Z,6.43
2023-02-18T02:39:42.959Z,6.22
2023-02-18T02:45:07.627Z,4.00
2023-02-18T02:50:28.481Z,6.18
2023-02-18T02:55:29.915Z,3.00
2023-02-18T03:00:55.174Z,5.10
2023-02-18T03:06:42.040Z,6.20
2023-02-18T03:12:22.224Z,2.72
2023-02-18T03:17:45.432Z,4.50
2023-02-18T03:22:50.252Z,5.57
2023-02-18T03:27:56.443Z,8.85
2023-02-18T03:33:05.270Z,3.90
2023-02-18T03:38:19.217Z,4.95
2023-02-18T03:43:20.834Z,7.97
2023-02-18T03:53:27.005Z,5.65
2023-02-18T03:58:28.454Z,5.35
2023-02-18T04:03:29.908Z,8.23
2023-02-18T04:08:31.363Z,4.32
2023-02-18T04:13:33.006Z,7.25
2023-02-18T04:18:34.471Z,4.80
2023-02-18T04:23:35.907Z,4.93
2023-02-18T04:28:37.381Z,3.42
2023-02-18T04:33:38.907Z,4.30
2023-02-18T04:43:43.452Z,5.22
2023-02-18T04:48:44.884Z,8.10
2023-02-18T04:53:46.389Z,9.63
2023-02-18T04:58:47.856Z,8.38
2023-02-18T05:03:49.340Z,9.20
2023-02-18T05:08:50.858Z,7.15
2023-02-18T05:13:52.306Z,9.82
2023-02-18T05:18:53.783Z,8.65
2023-02-18T05:23:55.223Z,11.40
2023-02-18T05:28:57.325Z,7.93
2023-02-18T05:33:58.774Z,5.93
2023-02-18T05:39:00.224Z,5.90
2023-02-18T05:44:20.702Z,8.43
2023-02-18T05:54:23.953Z,13.45
2023-02-18T05:59:25.466Z,11.32
2023-02-18T06:04:26.915Z,8.30
2023-02-18T06:09:28.394Z,9.23
2023-02-18T06:14:29.832Z,10.75
2023-02-18T06:19:31.321Z,13.38
2023-02-18T06:24:33.353Z,13.15
2023-02-18T06:29:35.937Z,9.32
2023-02-18T06:34:37.414Z,13.60
2023-02-18T06:39:39.472Z,13.07
2023-02-18T06:44:41.004Z,20.60
2023-02-18T06:49:42.460Z,17.27
2023-02-18T06:54:43.940Z,15.48
2023-02-18T06:59:45.474Z,14.43
2023-02-18T07:04:46.968Z,13.57
2023-02-18T07:09:48.514Z,17.42
2023-02-18T07:14:49.942Z,18.42
2023-02-18T07:19:51.455Z,7.05
2023-02-18T07:24:53.587Z,11.52
2023-02-18T07:29:55.240Z,15.25
2023-02-18T07:34:56.660Z,6.65
2023-02-18T07:39:58.384Z,14.25
2023-02-18T07:44:59.836Z,12.88
2023-02-18T07:50:01.317Z,17.40
2023-02-18T07:55:02.761Z,15.50
2023-02-18T08:00:04.530Z,14.90
2023-02-18T08:05:13.967Z,8.57
2023-02-18T08:10:15.412Z,28.83
2023-02-18T08:15:16.890Z,10.93
2023-02-18T08:20:18.347Z,11.68
2023-02-18T08:25:29.237Z,16.40
2023-02-18T08:30:31.459Z,10.25
2023-02-18T08:35:34.033Z,8.65
2023-02-18T08:40:35.486Z,12.05
2023-02-18T08:45:38.202Z,15.07
2023-02-18T08:50:39.631Z,13.02
2023-02-18T08:55:41.478Z,15.48
2023-02-18T09:00:44.879Z,15.93
2023-02-18T09:05:46.313Z,9.98
2023-02-18T09:10:47.785Z,9.35
2023-02-18T09:16:04.402Z,13.52
2023-02-18T09:21:08.246Z,8.95
2023-02-18T09:26:17.962Z,16.75
2023-02-18T09:31:22.097Z,8.68
2023-02-18T09:36:23.958Z,14.48
2023-02-18T09:41:39.366Z,6.03
2023-02-18T09:46:51.578Z,4.50
2023-02-18T09:51:55.307Z,4.07
2023-02-18T09:56:57.369Z,3.60
2023-02-18T10:02:02.387Z,3.70
2023-02-18T10:07:04.083Z,2.88
2023-02-18T10:17:18.780Z,2.60
2023-02-18T10:22:22.136Z,3.33
2023-02-18T10:27:32.688Z,2.53
2023-02-18T10:32:41.092Z,2.45
2023-02-18T10:37:54.647Z,2.90
2023-02-18T10:43:12.656Z,2.80
2023-02-18T10:48:38.275Z,2.95
2023-02-18T10:53:43.199Z,2.10
2023-02-18T10:58:47.012Z,2.95
2023-02-18T11:03:51.701Z,2.20
2023-02-18T11:08:56.590Z,3.70
2023-02-18T11:14:02.106Z,1.10
2023-02-18T11:19:04.459Z,1.35
2023-02-18T11:24:15.545Z,1.75
2023-02-18T11:29:26.500Z,1.50
2023-02-18T11:34:31.652Z,2.80
2023-02-18T11:39:33.816Z,2.80
2023-02-18T11:44:41.717Z,1.77
2023-02-18T11:55:14.494Z,2.33
2023-02-18T12:00:40.152Z,1.70
2023-02-18T12:05:43.756Z,1.45
2023-02-18T12:10:52.106Z,3.28
2023-02-18T12:16:16.866Z,4.63
2023-02-18T12:21:40.861Z,2.33
2023-02-18T12:27:11.205Z,2.50
2023-02-18T12:32:33.359Z,1.73
2023-02-18T12:37:49.566Z,2.17
2023-02-18T12:43:05.540Z,2.85
2023-02-18T12:48:34.495Z,2.67
2023-02-18T12:54:05.944Z,3.20
2023-02-18T12:59:49.400Z,2.83
2023-02-18T13:05:28.156Z,2.63
2023-02-18T13:11:01.740Z,3.85
2023-02-18T13:16:08.942Z,1.95
2023-02-18T13:21:15.351Z,2.80
2023-02-18T13:26:18.881Z,3.55
2023-02-18T13:31:57.926Z,1.70
2023-02-18T13:42:17.553Z,4.53
2023-02-18T13:47:41.868Z,2.22
2023-02-18T13:52:44.514Z,2.50
2023-02-18T13:57:48.534Z,1.92
2023-02-18T14:03:02.098Z,2.20
2023-02-18T14:08:12.648Z,2.97
2023-02-18T14:13:24.062Z,1.95
2023-02-18T14:18:39.551Z,1.05
2023-02-18T14:23:56.388Z,1.90
2023-02-18T14:29:26.233Z,1.27
2023-02-18T14:34:47.790Z,1.77
2023-02-18T14:40:14.111Z,2.13
2023-02-18T14:45:54.650Z,2.75
2023-02-18T14:50:57.160Z,1.90
2023-02-18T14:56:03.637Z,1.40
2023-02-18T15:01:18.119Z,1.27
2023-02-18T15:06:31.815Z,2.13
2023-02-18T15:11:38.273Z,3.83
2023-02-18T15:16:39.924Z,2.78
2023-02-18T15:26:49.159Z,2.53
2023-02-18T15:31:50.890Z,1.55
2023-02-18T15:36:53.200Z,1.42
2023-02-18T15:41:56.972Z,1.40
2023-02-18T15:47:08.502Z,3.55
2023-02-18T15:52:10.087Z,5.72
2023-02-18T16:02:20.188Z,1.55
2023-02-18T16:07:26.411Z,3.00
2023-02-18T16:12:32.186Z,4.65
2023-02-18T16:17:33.791Z,1.38
2023-02-18T16:27:55.151Z,0.93
2023-02-18T16:32:58.017Z,1.58
2023-02-18T16:37:59.775Z,2.40
2023-02-18T16:43:09.037Z,1.60
2023-02-18T16:48:40.659Z,1.10
2023-02-18T16:53:42.248Z,0.68
2023-02-18T17:03:46.683Z,1.38
2023-02-18T17:08:50.219Z,1.10
2023-02-18T17:13:53.221Z,0.52
2023-02-18T17:18:54.785Z,4.10
2023-02-18T17:29:00.565Z,1.20
2023-02-18T17:34:06.015Z,2.38
2023-02-18T17:39:13.064Z,1.98
2023-02-18T17:44:19.860Z,1.70
2023-02-18T17:49:22.364Z,2.17
2023-02-18T17:54:25.742Z,1.77
2023-02-18T17:59:29.859Z,1.77
2023-02-18T18:04:31.453Z,2.63
2023-02-18T18:14:34.899Z,1.38
2023-02-18T18:19:37.979Z,1.98
2023-02-18T18:24:39.413Z,3.17
2023-02-18T18:29:40.895Z,2.22
2023-02-18T18:34:44.109Z,2.05
2023-02-18T18:39:45.854Z,2.67
2023-02-18T18:44:47.289Z,3.78
2023-02-18T18:49:48.794Z,1.92
2023-02-18T18:54:50.486Z,1.80
2023-02-18T18:59:51.897Z,2.00
2023-02-18T19:04:53.336Z,2.30
2023-02-18T19:09:54.753Z,1.85
2023-02-18T19:14:56.195Z,2.60
2023-02-18T19:19:57.633Z,3.30
2023-02-18T19:24:59.085Z,2.63
2023-02-18T19:30:00.559Z,2.42
2023-02-18T19:35:02.030Z,2.40
2023-02-18T19:40:05.994Z,2.25
2023-02-18T19:45:08.315Z,2.35
2023-02-18T19:50:13.252Z,3.05
2023-02-18T19:55:14.677Z,1.92
2023-02-18T20:00:18.088Z,1.77
2023-02-18T20:05:19.706Z,2.85
2023-02-18T20:15:22.829Z,2.70
2023-02-18T20:25:27.672Z,3.97
2023-02-18T20:30:29.264Z,2.70
2023-02-18T20:35:30.722Z,2.53
2023-02-18T20:40:34.662Z,3.03
2023-02-18T20:45:36.281Z,3.40
2023-02-18T20:50:37.733Z,2.63
2023-02-18T20:55:46.340Z,2.40
2023-02-18T21:00:58.986Z,2.80
2023-02-18T21:06:06.457Z,2.55
2023-02-18T21:11:12.076Z,5.55
2023-02-18T21:16:14.598Z,2.92
2023-02-18T21:21:16.590Z,2.55
2023-02-18T21:26:25.527Z,3.28
2023-02-18T21:31:33.249Z,3.33
2023-02-18T21:36:34.838Z,3.15
2023-02-18T21:41:40.236Z,8.05
2023-02-18T21:46:42.510Z,3.50
2023-02-18T21:52:05.394Z,4.82
2023-02-18T21:57:18.151Z,3.20
2023-02-18T22:02:22.961Z,4.05
2023-02-18T22:07:28.029Z,3.63
2023-02-18T22:12:32.085Z,3.47
2023-02-18T22:17:36.045Z,3.78
2023-02-18T22:22:37.606Z,5.18
2023-02-18T22:27:39.138Z,6.28
2023-02-18T22:32:43.062Z,5.45
2023-02-18T22:37:44.899Z,4.47
2023-02-18T22:42:46.448Z,5.88
2023-02-18T22:52:49.502Z,4.85
2023-02-18T22:57:50.922Z,5.13
2023-02-18T23:02:53.187Z,5.22
2023-02-18T23:07:54.618Z,4.75
2023-02-18T23:12:56.065Z,5.25
2023-02-18T23:17:57.494Z,5.30
2023-02-18T23:22:59.006Z,4.32
2023-02-18T23:28:00.467Z,4.50
2023-02-18T23:33:01.887Z,5.75
2023-02-18T23:38:03.335Z,4.85
2023-02-18T23:43:04.793Z,6.78
2023-02-18T23:48:06.245Z,6.43
2023-02-18T23:53:07.686Z,5.88
2023-02-18T23:58:09.170Z,4.30
